createdAt,value
2022-08-03T00:00:12.057Z,621
2022-08-03T00:06:03.493Z,621
2022-08-03T00:11:13.476Z,609
2022-08-03T00:16:44.313Z,611
2022-08-03T00:22:15.389Z,612
2022-08-03T00:27:45.150Z,609
2022-08-03T00:33:15.780Z,611
2022-08-03T00:38:46.350Z,612
2022-08-03T00:44:16.935Z,609
2022-08-03T00:49:47.553Z,607
2022-08-03T00:55:18.360Z,608
2022-08-03T01:00:48.173Z,612
2022-08-03T01:06:18.827Z,613
2022-08-03T01:12:00.879Z,615
2022-08-03T01:17:20.004Z,620
2022-08-03T01:22:50.612Z,619
2022-08-03T01:28:21.226Z,620
2022-08-03T01:33:51.787Z,629
2022-08-03T01:39:22.397Z,633
2022-08-03T01:44:53.005Z,636
2022-08-03T01:50:22.797Z,633
2022-08-03T01:55:53.368Z,636
2022-08-03T02:01:24.015Z,641
2022-08-03T02:06:59.814Z,635
2022-08-03T02:12:25.192Z,639
2022-08-03T02:17:55.957Z,642
2022-08-03T02:23:26.793Z,643
2022-08-03T02:28:57.658Z,641
2022-08-03T02:34:27.520Z,646
2022-08-03T02:39:58.115Z,652
2022-08-03T02:45:28.752Z,652
2022-08-03T02:50:59.617Z,641
2022-08-03T02:56:29.973Z,644
2022-08-03T03:02:00.744Z,643
2022-08-03T03:07:34.660Z,643
2022-08-03T03:13:02.585Z,646
2022-08-03T03:18:32.262Z,637
2022-08-03T03:24:02.865Z,645
2022-08-03T03:29:39.182Z,650
2022-08-03T03:35:04.198Z,654
2022-08-03T03:40:34.798Z,656
2022-08-03T03:46:05.382Z,659
2022-08-03T03:51:35.999Z,660
2022-08-03T03:57:06.584Z,654
2022-08-03T04:02:37.175Z,658
2022-08-03T04:08:07.792Z,653
2022-08-03T04:13:37.599Z,660
2022-08-03T04:19:08.172Z,656
2022-08-03T04:24:38.798Z,661
2022-08-03T04:30:09.400Z,657
2022-08-03T04:36:01.341Z,663
2022-08-03T04:41:10.783Z,654
2022-08-03T04:46:41.444Z,650
2022-08-03T04:52:12.293Z,648
2022-08-03T04:57:42.403Z,657
2022-08-03T05:03:23.575Z,653
2022-08-03T05:08:47.115Z,651
2022-08-03T05:14:15.099Z,654
2022-08-03T05:19:45.929Z,691
2022-08-03T05:25:19.820Z,550
2022-08-03T05:30:46.915Z,498
2022-08-03T05:36:17.756Z,464
2022-08-03T05:41:48.588Z,448
2022-08-03T05:47:19.440Z,443
2022-08-03T05:52:50.396Z,447
2022-08-03T05:58:20.366Z,440
2022-08-03T06:03:51.254Z,437
2022-08-03T06:09:21.066Z,434
2022-08-03T06:14:51.661Z,429
2022-08-03T06:20:22.245Z,429
2022-08-03T06:25:52.834Z,433
2022-08-03T06:31:23.446Z,430
2022-08-03T06:36:57.314Z,429
2022-08-03T06:42:25.051Z,425
2022-08-03T06:47:55.867Z,434
2022-08-03T06:53:26.064Z,440
2022-08-03T06:58:56.222Z,437
2022-08-03T07:04:26.554Z,435
2022-08-03T07:09:58.292Z,440
2022-08-03T07:15:53.822Z,425
2022-08-03T07:20:58.313Z,420
2022-08-03T07:26:28.927Z,425
2022-08-03T07:31:59.907Z,424
2022-08-03T07:37:29.511Z,423
2022-08-03T07:43:00.133Z,428
2022-08-03T07:48:30.717Z,424
2022-08-03T07:54:01.322Z,425
2022-08-03T07:59:56.357Z,429
2022-08-03T08:05:05.652Z,437
2022-08-03T08:10:33.654Z,435
2022-08-03T08:16:03.709Z,426
2022-08-03T08:22:40.424Z,445
2022-08-03T08:28:31.260Z,522
2022-08-03T08:34:03.189Z,485
2022-08-03T08:39:12.241Z,490
2022-08-03T08:44:42.945Z,468
2022-08-03T08:50:24.788Z,472
2022-08-03T08:55:59.976Z,469
2022-08-03T09:01:14.842Z,456
2022-08-03T09:07:04.432Z,449
2022-08-03T09:12:40.611Z,452
2022-08-03T09:17:50.918Z,444
2022-08-03T09:23:51.583Z,458
2022-08-03T09:28:59.988Z,465
2022-08-03T09:34:18.077Z,445
2022-08-03T09:39:48.615Z,431
2022-08-03T09:45:19.257Z,426
2022-08-03T09:50:58.511Z,422
2022-08-03T09:56:33.495Z,414
2022-08-03T10:01:51.261Z,415
2022-08-03T10:07:22.112Z,414
2022-08-03T10:12:52.983Z,408
2022-08-03T10:18:22.948Z,425
2022-08-03T10:23:53.569Z,427
2022-08-03T10:29:24.205Z,427
2022-08-03T10:35:00.234Z,424
2022-08-03T10:40:47.665Z,426
2022-08-03T10:47:02.306Z,428
2022-08-03T10:52:40.901Z,424
2022-08-03T10:58:07.951Z,429
2022-08-03T11:03:34.660Z,431
2022-08-03T11:09:05.230Z,429
2022-08-03T11:14:35.793Z,424
2022-08-03T11:20:06.422Z,426
2022-08-03T11:25:54.988Z,432
2022-08-03T11:31:08.084Z,426
2022-08-03T11:36:38.965Z,422
2022-08-03T11:42:09.017Z,421
2022-08-03T11:47:50.323Z,417
2022-08-03T11:53:10.222Z,420
2022-08-03T11:59:16.631Z,421
2022-08-03T12:04:11.448Z,428
2022-08-03T12:09:42.195Z,432
2022-08-03T12:15:13.063Z,424
2022-08-03T12:20:43.895Z,425
2022-08-03T12:26:13.755Z,425
2022-08-03T12:31:44.378Z,423
2022-08-03T12:37:21.754Z,424
2022-08-03T12:42:45.563Z,418
2022-08-03T12:48:16.251Z,424
2022-08-03T12:53:46.960Z,426
2022-08-03T12:59:17.861Z,425
2022-08-03T13:04:48.765Z,423
2022-08-03T13:10:18.521Z,424
2022-08-03T13:15:49.122Z,425
2022-08-03T13:21:19.745Z,431
2022-08-03T13:26:49.350Z,425
2022-08-03T13:32:19.930Z,426
2022-08-03T13:37:50.572Z,424
2022-08-03T13:43:21.124Z,429
2022-08-03T13:48:51.718Z,459
2022-08-03T13:54:22.323Z,480
2022-08-03T13:59:52.933Z,497
2022-08-03T14:05:22.559Z,509
2022-08-03T14:10:53.167Z,516
2022-08-03T14:16:23.759Z,516
2022-08-03T14:22:06.184Z,512
2022-08-03T14:27:25.000Z,504
2022-08-03T14:33:00.456Z,502
2022-08-03T14:38:26.638Z,502
2022-08-03T14:44:01.483Z,503
2022-08-03T14:50:36.171Z,499
2022-08-03T14:54:58.138Z,493
2022-08-03T15:00:28.743Z,498
2022-08-03T15:05:59.346Z,493
2022-08-03T15:11:29.931Z,484
2022-08-03T15:17:00.785Z,478
2022-08-03T15:22:34.738Z,474
2022-08-03T15:28:04.017Z,472
2022-08-03T15:33:32.273Z,471
2022-08-03T15:39:02.941Z,466
2022-08-03T15:44:33.488Z,464
2022-08-03T15:50:09.214Z,465
2022-08-03T15:55:33.674Z,458
2022-08-03T16:01:03.358Z,457
2022-08-03T16:06:35.158Z,457
2022-08-03T16:12:04.478Z,454
2022-08-03T16:17:35.104Z,452
2022-08-03T16:23:10.678Z,449
2022-08-03T16:28:36.316Z,462
2022-08-03T16:34:06.948Z,469
2022-08-03T16:39:36.688Z,482
2022-08-03T16:45:07.153Z,502
2022-08-03T16:50:37.755Z,539
2022-08-03T16:56:10.587Z,551
2022-08-03T17:01:39.042Z,556
2022-08-03T17:07:09.678Z,555
2022-08-03T17:12:40.507Z,552
2022-08-03T17:18:11.384Z,549
2022-08-03T17:23:41.161Z,554
2022-08-03T17:29:12.776Z,550
2022-08-03T17:34:42.397Z,582
2022-08-03T17:40:17.973Z,599
2022-08-03T17:45:52.704Z,618
2022-08-03T17:56:46.427Z,557
2022-08-03T18:02:25.170Z,594
2022-08-03T18:07:46.192Z,614
2022-08-03T18:13:17.036Z,591
2022-08-03T18:18:48.628Z,592
2022-08-03T18:24:18.768Z,576
2022-08-03T18:29:49.603Z,565
2022-08-03T18:35:19.674Z,575
2022-08-03T18:40:49.367Z,578
2022-08-03T18:46:19.884Z,572
2022-08-03T18:51:50.490Z,595
2022-08-03T18:57:21.101Z,583
2022-08-03T19:02:51.704Z,615
2022-08-03T19:08:22.313Z,621
2022-08-03T19:13:52.919Z,608
2022-08-03T19:19:24.669Z,585
2022-08-03T19:24:54.295Z,573
2022-08-03T19:30:26.286Z,555
2022-08-03T19:35:57.296Z,553
2022-08-03T19:41:24.407Z,596
2022-08-03T19:46:55.010Z,599
2022-08-03T19:52:31.257Z,571
2022-08-03T19:57:57.216Z,571
2022-08-03T20:03:26.783Z,571
2022-08-03T20:08:57.370Z,578
2022-08-03T20:14:27.991Z,577
2022-08-03T20:19:58.688Z,585
2022-08-03T20:25:38.349Z,578
2022-08-03T20:30:59.881Z,569
2022-08-03T20:36:29.739Z,571
2022-08-03T20:42:00.343Z,563
2022-08-03T20:47:30.931Z,566
2022-08-03T20:53:02.731Z,576
2022-08-03T20:58:32.142Z,577
2022-08-03T21:04:04.491Z,569
2022-08-03T21:09:40.130Z,572
2022-08-03T21:13:04.520Z,588
2022-08-03T21:15:04.533Z,574
2022-08-03T21:20:34.650Z,576
2022-08-03T21:26:05.250Z,572
2022-08-03T21:31:35.864Z,583
2022-08-03T21:37:06.453Z,583
2022-08-03T21:42:37.047Z,581
2022-08-03T21:48:07.679Z,582
2022-08-03T21:54:03.812Z,579
2022-08-03T21:59:09.412Z,579
2022-08-03T22:04:55.038Z,579
2022-08-03T22:10:10.020Z,576
2022-08-03T22:15:40.601Z,575
2022-08-03T22:21:11.183Z,571
2022-08-03T22:26:41.784Z,575
2022-08-03T22:32:12.509Z,575
2022-08-03T22:37:43.471Z,575
2022-08-03T22:43:14.341Z,570
2022-08-03T22:48:44.412Z,560
2022-08-03T22:54:15.000Z,566
2022-08-03T22:59:45.735Z,564
2022-08-03T23:06:02.509Z,562
2022-08-03T23:10:47.410Z,562
2022-08-03T23:16:28.601Z,561
2022-08-03T23:21:53.720Z,557
2022-08-03T23:27:18.886Z,562
2022-08-03T23:32:54.794Z,574
2022-08-03T23:38:22.740Z,571
2022-08-03T23:43:54.082Z,551
2022-08-03T23:49:21.816Z,550
2022-08-03T23:54:51.671Z,555
